createdAt,value
2022-11-10T00:02:20.567Z,17.45
2022-11-10T00:05:06.147Z,17.90
2022-11-10T00:07:51.624Z,17.48
2022-11-10T00:10:57.133Z,17.52
2022-11-10T00:14:01.231Z,17.77
2022-11-10T00:17:01.902Z,17.52
2022-11-10T00:19:47.625Z,17.92
2022-11-10T00:22:37.869Z,18.00
2022-11-10T00:25:24.473Z,18.13
2022-11-10T00:28:10.791Z,18.42
2022-11-10T00:30:56.535Z,17.95
2022-11-10T00:33:43.920Z,17.73
2022-11-10T00:36:29.904Z,18.08
2022-11-10T00:39:15.663Z,18.20
2022-11-10T00:42:01.008Z,17.88
2022-11-10T00:44:46.845Z,17.52
2022-11-10T00:47:32.589Z,17.83
2022-11-10T00:50:18.116Z,17.80
2022-11-10T00:53:04.062Z,17.55
2022-11-10T00:55:49.761Z,18.52
2022-11-10T00:58:35.274Z,18.48
2022-11-10T01:01:22.381Z,17.38
2022-11-10T01:04:08.093Z,17.83
2022-11-10T01:06:53.244Z,17.48
2022-11-10T01:09:38.763Z,17.65
2022-11-10T01:12:24.413Z,17.60
2022-11-10T01:15:10.193Z,18.17
2022-11-10T01:17:56.608Z,17.67
2022-11-10T01:20:42.155Z,17.92
2022-11-10T01:23:27.777Z,17.63
2022-11-10T01:26:13.822Z,17.80
2022-11-10T01:28:58.964Z,17.92
2022-11-10T01:31:44.413Z,18.10
2022-11-10T01:34:29.802Z,17.73
2022-11-10T01:37:15.129Z,17.55
2022-11-10T01:40:00.730Z,18.15
2022-11-10T01:42:55.520Z,18.67
2022-11-10T01:45:45.378Z,18.25
2022-11-10T01:48:59.155Z,18.27
2022-11-10T01:51:54.926Z,18.00
2022-11-10T01:54:50.044Z,18.38
2022-11-10T01:57:37.154Z,18.38
2022-11-10T02:00:23.505Z,18.00
2022-11-10T02:03:41.690Z,17.80
2022-11-10T02:06:31.585Z,17.85
2022-11-10T02:09:17.758Z,17.70
2022-11-10T02:12:03.220Z,17.90
2022-11-10T02:14:48.974Z,17.88
2022-11-10T02:17:34.674Z,17.65
2022-11-10T02:20:21.579Z,18.25
2022-11-10T02:23:12.935Z,17.90
2022-11-10T02:25:58.800Z,18.33
2022-11-10T02:28:43.843Z,17.95
2022-11-10T02:31:29.325Z,17.80
2022-11-10T02:34:15.032Z,17.85
2022-11-10T02:37:00.512Z,18.70
2022-11-10T02:39:45.789Z,17.70
2022-11-10T02:42:31.119Z,18.50
2022-11-10T02:45:16.556Z,18.77
2022-11-10T02:48:01.938Z,17.95
2022-11-10T02:50:47.536Z,18.58
2022-11-10T02:53:32.894Z,18.20
2022-11-10T02:56:18.325Z,18.95
2022-11-10T02:59:04.924Z,20.02
2022-11-10T03:01:49.998Z,18.50
2022-11-10T03:04:35.750Z,18.23
2022-11-10T03:07:21.187Z,18.13
2022-11-10T03:10:07.223Z,18.05
2022-11-10T03:13:00.245Z,18.67
2022-11-10T03:15:47.997Z,18.75
2022-11-10T03:18:33.371Z,19.00
2022-11-10T03:21:18.719Z,18.90
2022-11-10T03:24:04.617Z,18.95
2022-11-10T03:26:50.124Z,18.85
2022-11-10T03:29:35.556Z,18.65
2022-11-10T03:32:20.822Z,19.30
2022-11-10T03:35:06.548Z,18.42
2022-11-10T03:37:51.952Z,18.67
2022-11-10T03:40:57.000Z,18.60
2022-11-10T03:43:42.292Z,18.20
2022-11-10T03:46:27.658Z,20.70
2022-11-10T03:49:12.897Z,18.70
2022-11-10T03:51:58.249Z,18.90
2022-11-10T03:54:43.658Z,19.42
2022-11-10T03:57:29.158Z,19.48
2022-11-10T04:00:14.999Z,19.15
2022-11-10T04:03:00.395Z,17.88
2022-11-10T04:06:04.084Z,19.73
2022-11-10T04:09:01.235Z,19.02
2022-11-10T04:12:05.243Z,19.58
2022-11-10T04:15:09.704Z,20.77
2022-11-10T04:17:55.362Z,20.45
2022-11-10T04:20:40.962Z,19.63
2022-11-10T04:23:34.961Z,20.60
2022-11-10T04:26:29.519Z,20.92
2022-11-10T04:29:19.489Z,20.25
2022-11-10T04:32:04.807Z,20.02
2022-11-10T04:34:50.505Z,20.70
2022-11-10T04:37:35.788Z,19.52
2022-11-10T04:40:21.609Z,20.30
2022-11-10T04:43:06.919Z,20.63
2022-11-10T04:45:52.647Z,20.10
2022-11-10T04:48:38.180Z,20.17
2022-11-10T04:51:28.700Z,20.90
2022-11-10T04:54:14.003Z,20.63
2022-11-10T04:56:59.287Z,21.05
2022-11-10T04:59:44.726Z,20.52
2022-11-10T05:02:30.131Z,20.58
2022-11-10T05:05:15.581Z,20.45
2022-11-10T05:08:01.724Z,19.85
2022-11-10T05:10:47.207Z,20.10
2022-11-10T05:13:32.956Z,19.90
2022-11-10T05:16:18.097Z,19.50
2022-11-10T05:19:04.122Z,19.33
2022-11-10T05:21:49.606Z,19.45
2022-11-10T05:24:34.747Z,19.70
2022-11-10T05:27:20.145Z,20.38
2022-11-10T05:30:06.226Z,19.67
2022-11-10T05:32:51.460Z,19.75
2022-11-10T05:35:37.177Z,18.90
2022-11-10T05:38:22.537Z,19.45
2022-11-10T05:41:07.984Z,19.48
2022-11-10T05:43:53.297Z,20.30
2022-11-10T05:46:38.686Z,20.05
2022-11-10T05:49:24.151Z,19.23
2022-11-10T05:52:09.443Z,20.52
2022-11-10T05:54:55.566Z,19.80
2022-11-10T05:57:45.421Z,19.48
2022-11-10T06:00:31.848Z,20.17
2022-11-10T06:03:20.235Z,19.83
2022-11-10T06:06:05.855Z,19.42
2022-11-10T06:08:52.120Z,20.25
2022-11-10T06:11:37.491Z,20.63
2022-11-10T06:14:22.574Z,20.20
2022-11-10T06:17:07.902Z,19.92
2022-11-10T06:19:53.606Z,20.10
2022-11-10T06:22:39.174Z,20.42
2022-11-10T06:25:24.547Z,20.80
2022-11-10T06:28:10.922Z,19.50
2022-11-10T06:30:59.116Z,20.23
2022-11-10T06:33:44.708Z,20.23
2022-11-10T06:36:30.070Z,19.40
2022-11-10T06:39:15.430Z,20.25
2022-11-10T06:42:01.051Z,20.45
2022-11-10T06:44:46.275Z,21.63
2022-11-10T06:47:32.164Z,20.33
2022-11-10T06:50:17.645Z,20.33
2022-11-10T06:53:03.389Z,20.75
2022-11-10T06:55:48.802Z,20.25
2022-11-10T06:58:34.147Z,20.30
2022-11-10T07:01:22.615Z,21.15
2022-11-10T07:04:23.567Z,21.00
2022-11-10T07:07:09.150Z,19.45
2022-11-10T07:09:54.644Z,20.52
2022-11-10T07:12:40.108Z,20.70
2022-11-10T07:15:25.454Z,21.50
2022-11-10T07:18:11.078Z,21.13
2022-11-10T07:20:56.913Z,21.80
2022-11-10T07:23:42.351Z,21.95
2022-11-10T07:26:28.328Z,21.40
2022-11-10T07:29:13.413Z,21.40
2022-11-10T07:31:58.786Z,21.58
2022-11-10T07:34:44.063Z,21.05
2022-11-10T07:37:29.516Z,21.10
2022-11-10T07:40:14.797Z,22.27
2022-11-10T07:43:01.053Z,20.65
2022-11-10T07:45:46.659Z,21.58
2022-11-10T07:48:31.914Z,20.40
2022-11-10T07:51:17.946Z,20.35
2022-11-10T07:54:03.344Z,20.77
2022-11-10T07:56:49.537Z,21.25
2022-11-10T07:59:35.085Z,21.23
2022-11-10T08:02:20.400Z,20.63
2022-11-10T08:05:06.334Z,21.13
2022-11-10T08:07:53.119Z,21.30
2022-11-10T08:10:40.147Z,21.95
2022-11-10T08:13:25.827Z,22.20
2022-11-10T08:16:11.267Z,22.23
2022-11-10T08:18:56.649Z,21.02
2022-11-10T08:21:41.991Z,20.90
2022-11-10T08:24:27.371Z,21.58
2022-11-10T08:27:12.762Z,21.23
2022-11-10T08:29:58.116Z,24.80
2022-11-10T08:32:43.419Z,21.27
2022-11-10T08:35:31.110Z,21.23
2022-11-10T08:38:22.336Z,21.85
2022-11-10T08:41:08.520Z,22.75
2022-11-10T08:43:53.830Z,22.10
2022-11-10T08:46:42.377Z,21.23
2022-11-10T08:49:27.332Z,21.45
2022-11-10T08:52:14.198Z,21.38
2022-11-10T08:54:59.571Z,23.00
2022-11-10T08:57:44.935Z,21.83
2022-11-10T09:00:32.351Z,20.85
2022-11-10T09:03:22.886Z,22.08
2022-11-10T09:06:08.615Z,21.50
2022-11-10T09:08:54.278Z,21.77
2022-11-10T09:11:39.620Z,21.55
2022-11-10T09:14:24.919Z,22.20
2022-11-10T09:17:10.146Z,21.20
2022-11-10T09:19:55.730Z,20.95
2022-11-10T09:22:41.381Z,20.58
2022-11-10T09:25:26.885Z,20.70
2022-11-10T09:28:14.045Z,20.98
2022-11-10T09:30:59.932Z,20.67
2022-11-10T09:33:45.466Z,20.33
2022-11-10T09:36:30.907Z,22.15
2022-11-10T09:39:16.318Z,21.77
2022-11-10T09:42:01.850Z,21.08
2022-11-10T09:44:58.158Z,21.48
2022-11-10T09:48:09.081Z,21.70
2022-11-10T09:53:50.472Z,19.77
2022-11-10T09:56:38.063Z,22.17
2022-11-10T09:59:35.001Z,21.50
2022-11-10T10:02:38.226Z,20.83
2022-11-10T10:05:29.573Z,21.13
2022-11-10T10:08:24.542Z,21.42
2022-11-10T10:11:38.625Z,21.45
2022-11-10T10:14:38.799Z,20.67
2022-11-10T10:17:40.805Z,21.25
2022-11-10T10:20:42.360Z,21.52
2022-11-10T10:24:07.192Z,21.08
2022-11-10T10:26:50.720Z,21.27
2022-11-10T10:29:49.321Z,21.25
2022-11-10T10:32:35.208Z,20.85
2022-11-10T10:35:20.357Z,21.48
2022-11-10T10:38:22.309Z,20.85
2022-11-10T10:41:20.920Z,21.23
2022-11-10T10:44:17.704Z,21.58
2022-11-10T10:47:04.499Z,21.20
2022-11-10T10:49:49.753Z,20.55
2022-11-10T10:52:35.257Z,21.95
2022-11-10T10:55:20.640Z,21.15
2022-11-10T10:58:37.199Z,21.40
2022-11-10T11:01:32.886Z,21.23
2022-11-10T11:04:36.966Z,20.77
2022-11-10T11:07:25.102Z,20.67
2022-11-10T11:10:22.621Z,20.83
2022-11-10T11:13:20.928Z,20.33
2022-11-10T11:16:09.206Z,20.23
2022-11-10T11:18:54.286Z,20.08
2022-11-10T11:22:05.503Z,21.00
2022-11-10T11:25:06.288Z,21.52
2022-11-10T11:28:10.410Z,21.90
2022-11-10T11:30:58.609Z,20.20
2022-11-10T11:34:01.386Z,21.55
2022-11-10T11:37:23.991Z,20.95
2022-11-10T11:40:23.659Z,20.70
2022-11-10T11:43:27.987Z,20.30
2022-11-10T11:46:56.554Z,21.10
2022-11-10T11:50:03.650Z,20.48
2022-11-10T11:53:13.066Z,20.10
2022-11-10T11:56:06.657Z,19.85
2022-11-10T11:59:15.664Z,20.25
2022-11-10T12:02:31.680Z,19.98
2022-11-10T12:05:28.930Z,20.90
2022-11-10T12:08:31.104Z,20.58
2022-11-10T12:11:31.751Z,19.80
2022-11-10T12:14:31.035Z,19.40
2022-11-10T12:17:36.196Z,20.17
2022-11-10T12:20:59.187Z,19.95
2022-11-10T12:24:15.639Z,20.77
2022-11-10T12:27:20.377Z,19.10
2022-11-10T12:30:11.303Z,19.30
2022-11-10T12:35:46.843Z,19.35
2022-11-10T12:38:48.111Z,19.92
2022-11-10T12:41:42.071Z,19.23
2022-11-10T12:44:43.626Z,19.73
2022-11-10T12:47:38.351Z,18.92
2022-11-10T12:50:32.513Z,18.23
2022-11-10T12:53:29.800Z,19.15
2022-11-10T12:56:23.672Z,18.90
2022-11-10T12:59:21.880Z,18.75
2022-11-10T13:02:25.188Z,19.45
2022-11-10T13:05:32.124Z,20.13
2022-11-10T13:08:44.097Z,19.65
2022-11-10T13:11:36.863Z,20.52
2022-11-10T13:14:28.998Z,20.52
2022-11-10T13:17:26.232Z,19.45
2022-11-10T13:20:40.243Z,19.70
2022-11-10T13:23:43.821Z,18.50
2022-11-10T13:26:56.037Z,19.65
2022-11-10T13:29:47.783Z,19.65
2022-11-10T13:32:34.455Z,19.08
2022-11-10T13:35:29.142Z,19.20
2022-11-10T13:38:46.889Z,19.63
2022-11-10T13:41:34.739Z,19.58
2022-11-10T13:44:33.754Z,19.90
2022-11-10T13:47:19.367Z,19.58
2022-11-10T13:50:42.207Z,19.52
2022-11-10T13:53:34.506Z,20.70
2022-11-10T13:56:35.209Z,22.52
2022-11-10T13:59:30.734Z,21.15
2022-11-10T14:02:39.302Z,19.95
2022-11-10T14:05:30.934Z,20.00
2022-11-10T14:08:20.717Z,19.65
2022-11-10T14:11:14.156Z,20.45
2022-11-10T14:14:13.317Z,19.58
2022-11-10T14:16:59.642Z,19.02
2022-11-10T14:19:46.112Z,19.55
2022-11-10T14:22:44.656Z,19.65
2022-11-10T14:25:41.249Z,19.98
2022-11-10T14:28:34.957Z,19.08
2022-11-10T14:31:25.861Z,18.88
2022-11-10T14:34:17.038Z,18.95
2022-11-10T14:37:04.933Z,19.00
2022-11-10T14:40:00.055Z,19.92
2022-11-10T14:42:47.504Z,19.95
2022-11-10T14:45:33.764Z,20.60
2022-11-10T14:48:23.124Z,20.67
2022-11-10T14:51:15.208Z,20.35
2022-11-10T14:54:02.955Z,19.95
2022-11-10T14:56:49.369Z,19.52
2022-11-10T14:59:34.950Z,19.52
2022-11-10T15:02:20.948Z,18.80
2022-11-10T15:05:09.649Z,19.90
2022-11-10T15:07:57.278Z,19.48
2022-11-10T15:10:42.563Z,18.98
2022-11-10T15:13:28.132Z,19.98
2022-11-10T15:16:32.049Z,19.42
2022-11-10T15:19:23.097Z,18.83
2022-11-10T15:22:32.621Z,19.88
2022-11-10T15:25:21.729Z,19.25
2022-11-10T15:28:13.290Z,19.98
2022-11-10T15:31:20.783Z,19.83
2022-11-10T15:34:06.460Z,19.38
2022-11-10T15:37:30.451Z,19.55
2022-11-10T15:40:33.300Z,19.58
2022-11-10T15:43:26.469Z,19.65
2022-11-10T15:46:18.058Z,19.70
2022-11-10T15:49:04.536Z,18.58
2022-11-10T15:51:52.309Z,19.75
2022-11-10T15:54:37.809Z,19.15
2022-11-10T15:57:23.093Z,18.83
2022-11-10T16:00:12.272Z,19.42
2022-11-10T16:02:57.550Z,19.20
2022-11-10T16:05:42.755Z,19.60
2022-11-10T16:08:30.696Z,19.52
2022-11-10T16:11:19.670Z,19.60
2022-11-10T16:14:05.862Z,18.73
2022-11-10T16:16:51.065Z,19.58
2022-11-10T16:19:36.295Z,19.13
2022-11-10T16:22:21.581Z,18.55
2022-11-10T16:25:07.332Z,19.23
2022-11-10T16:27:53.083Z,18.83
2022-11-10T16:30:38.404Z,19.52
2022-11-10T16:33:24.746Z,19.35
2022-11-10T16:36:39.031Z,20.17
2022-11-10T16:39:25.500Z,20.65
2022-11-10T16:42:11.002Z,20.27
2022-11-10T16:44:56.169Z,20.48
2022-11-10T16:47:43.115Z,19.23
2022-11-10T16:50:34.006Z,21.27
2022-11-10T16:53:23.410Z,19.40
2022-11-10T16:56:14.739Z,20.10
2022-11-10T16:59:00.245Z,19.92
2022-11-10T17:01:47.593Z,19.42
2022-11-10T17:04:32.778Z,20.35
2022-11-10T17:07:24.482Z,19.67
2022-11-10T17:10:18.169Z,19.58
2022-11-10T17:13:03.484Z,19.27
2022-11-10T17:15:50.585Z,19.50
2022-11-10T17:18:36.371Z,19.55
2022-11-10T17:21:22.558Z,19.02
2022-11-10T17:24:12.638Z,20.67
2022-11-10T17:26:58.079Z,19.38
2022-11-10T17:29:44.124Z,20.05
2022-11-10T17:32:58.021Z,20.50
2022-11-10T17:36:02.490Z,20.60
2022-11-10T17:38:47.839Z,19.73
2022-11-10T17:41:34.105Z,20.70
2022-11-10T17:44:19.636Z,21.02
2022-11-10T17:47:05.117Z,20.70
2022-11-10T17:49:52.044Z,20.27
2022-11-10T17:52:37.345Z,21.02
2022-11-10T17:55:34.005Z,21.13
2022-11-10T17:58:19.967Z,20.25
2022-11-10T18:01:18.692Z,21.90
2022-11-10T18:04:04.228Z,20.10
2022-11-10T18:06:49.894Z,20.08
2022-11-10T18:09:35.046Z,19.80
2022-11-10T18:12:25.304Z,20.10
2022-11-10T18:15:15.015Z,19.42
2022-11-10T18:18:01.277Z,20.05
2022-11-10T18:20:46.961Z,19.60
2022-11-10T18:23:32.886Z,21.00
2022-11-10T18:26:21.038Z,19.30
2022-11-10T18:29:06.851Z,19.33
2022-11-10T18:31:52.166Z,19.42
2022-11-10T18:34:37.611Z,19.67
2022-11-10T18:37:23.088Z,19.38
2022-11-10T18:40:09.023Z,19.67
2022-11-10T18:43:06.157Z,20.33
2022-11-10T18:45:54.692Z,19.00
2022-11-10T18:48:41.246Z,20.63
2022-11-10T18:51:26.663Z,19.15
2022-11-10T18:54:12.179Z,20.90
2022-11-10T18:56:57.784Z,19.33
2022-11-10T18:59:43.446Z,20.17
2022-11-10T19:02:28.716Z,19.95
2022-11-10T19:05:14.294Z,19.52
2022-11-10T19:07:59.894Z,19.30
2022-11-10T19:10:45.230Z,20.30
2022-11-10T19:13:30.670Z,19.95
2022-11-10T19:16:18.179Z,19.23
2022-11-10T19:19:03.550Z,20.58
2022-11-10T19:21:48.736Z,20.02
2022-11-10T19:24:53.882Z,19.58
2022-11-10T19:27:39.231Z,19.42
2022-11-10T19:30:25.835Z,19.50
2022-11-10T19:33:10.788Z,20.48
2022-11-10T19:35:56.809Z,19.85
2022-11-10T19:38:42.988Z,19.50
2022-11-10T19:41:30.885Z,21.17
2022-11-10T19:44:16.246Z,19.50
2022-11-10T19:47:01.573Z,19.48
2022-11-10T19:49:46.963Z,20.58
2022-11-10T19:52:32.162Z,20.15
2022-11-10T19:55:17.916Z,20.08
2022-11-10T19:58:06.082Z,19.85
2022-11-10T20:00:51.339Z,18.88
2022-11-10T20:03:37.226Z,19.55
2022-11-10T20:06:23.547Z,19.42
2022-11-10T20:09:08.973Z,19.67
2022-11-10T20:11:54.427Z,19.58
2022-11-10T20:14:39.926Z,20.15
2022-11-10T20:17:25.241Z,20.50
2022-11-10T20:20:10.846Z,21.00
2022-11-10T20:23:00.784Z,21.02
2022-11-10T20:25:46.175Z,24.85
2022-11-10T20:28:33.755Z,26.20
2022-11-10T20:31:24.791Z,25.80
2022-11-10T20:34:09.856Z,25.42
2022-11-10T20:36:55.576Z,24.23
2022-11-10T20:39:40.764Z,24.65
2022-11-10T20:42:26.091Z,24.85
2022-11-10T20:45:11.818Z,23.60
2022-11-10T20:47:57.877Z,24.50
2022-11-10T20:50:43.320Z,24.98
2022-11-10T20:53:29.626Z,24.35
2022-11-10T20:56:15.881Z,23.85
2022-11-10T20:59:01.233Z,24.48
2022-11-10T21:01:46.623Z,24.23
2022-11-10T21:04:32.507Z,24.42
2022-11-10T21:07:18.014Z,23.58
2022-11-10T21:10:03.983Z,23.23
2022-11-10T21:12:49.458Z,24.70
2022-11-10T21:15:38.237Z,23.67
2022-11-10T21:18:26.489Z,24.52
2022-11-10T21:21:21.336Z,22.02
2022-11-10T21:24:08.195Z,23.77
2022-11-10T21:26:54.216Z,23.05
2022-11-10T21:29:40.022Z,21.70
2022-11-10T21:32:25.448Z,22.70
2022-11-10T21:35:10.902Z,22.63
2022-11-10T21:37:56.279Z,23.13
2022-11-10T21:40:41.732Z,21.25
2022-11-10T21:43:27.044Z,21.85
2022-11-10T21:46:12.894Z,24.20
2022-11-10T21:49:03.116Z,20.83
2022-11-10T21:51:52.526Z,20.83
2022-11-10T21:54:38.337Z,19.58
2022-11-10T21:57:24.576Z,19.88
2022-11-10T22:00:11.649Z,20.25
2022-11-10T22:03:01.432Z,19.75
2022-11-10T22:05:47.241Z,18.90
2022-11-10T22:08:33.696Z,19.10
2022-11-10T22:11:39.284Z,20.88
2022-11-10T22:14:43.127Z,20.17
2022-11-10T22:17:46.824Z,20.05
2022-11-10T22:20:31.943Z,19.58
2022-11-10T22:23:17.212Z,19.58
2022-11-10T22:26:02.490Z,19.38
2022-11-10T22:28:48.320Z,19.73
2022-11-10T22:31:33.963Z,19.25
2022-11-10T22:34:20.007Z,18.60
2022-11-10T22:37:05.476Z,19.27
2022-11-10T22:40:09.525Z,19.30
2022-11-10T22:43:13.376Z,19.52
2022-11-10T22:45:58.959Z,19.55
2022-11-10T22:48:44.406Z,19.23
2022-11-10T22:51:31.212Z,19.00
2022-11-10T22:54:22.907Z,18.52
2022-11-10T22:57:08.208Z,19.23
2022-11-10T22:59:54.063Z,18.83
2022-11-10T23:02:40.124Z,18.08
2022-11-10T23:05:25.195Z,19.48
2022-11-10T23:08:11.516Z,19.80
2022-11-10T23:11:04.505Z,21.25
2022-11-10T23:13:50.710Z,18.55
2022-11-10T23:16:36.094Z,18.60
2022-11-10T23:19:21.534Z,18.52
2022-11-10T23:22:06.729Z,19.20
2022-11-10T23:24:56.917Z,18.20
2022-11-10T23:27:42.922Z,19.25
2022-11-10T23:30:28.158Z,19.10
2022-11-10T23:33:13.502Z,18.75
2022-11-10T23:35:59.467Z,19.92
2022-11-10T23:38:45.618Z,19.10
2022-11-10T23:41:31.297Z,18.17
2022-11-10T23:44:16.609Z,18.50
2022-11-10T23:47:01.951Z,18.48
2022-11-10T23:49:47.510Z,18.90
2022-11-10T23:52:33.070Z,17.90
2022-11-10T23:55:18.606Z,18.65
2022-11-10T23:58:04.422Z,18.38
